sensor_id;sensor_type;location;lat;lon;timestamp;temperature;humidity
4390;DHT22;2209;48.982;8.406;2023-02-10T00:01:02;4.10;96.70
4390;DHT22;2209;48.982;8.406;2023-02-10T00:03:24;4.10;96.60
4390;DHT22;2209;48.982;8.406;2023-02-10T00:05:46;4.10;96.60
4390;DHT22;2209;48.982;8.406;2023-02-10T00:08:08;4.10;97.00
4390;DHT22;2209;48.982;8.406;2023-02-10T00:10:32;4.10;96.60
4390;DHT22;2209;48.982;8.406;2023-02-10T00:12:54;4.00;96.70
4390;DHT22;2209;48.982;8.406;2023-02-10T00:15:16;4.10;96.70
4390;DHT22;2209;48.982;8.406;2023-02-10T00:17:38;4.00;96.60
4390;DHT22;2209;48.982;8.406;2023-02-10T00:20:00;4.00;96.60
4390;DHT22;2209;48.982;8.406;2023-02-10T00:22:23;4.00;97.00
4390;DHT22;2209;48.982;8.406;2023-02-10T00:24:45;4.00;96.60
4390;DHT22;2209;48.982;8.406;2023-02-10T00:27:08;4.00;96.60
4390;DHT22;2209;48.982;8.406;2023-02-10T00:29:30;4.00;96.70
4390;DHT22;2209;48.982;8.406;2023-02-10T00:31:53;4.00;96.70
4390;DHT22;2209;48.982;8.406;2023-02-10T00:34:16;4.00;96.80
4390;DHT22;2209;48.982;8.406;2023-02-10T00:36:38;4.00;96.80
4390;DHT22;2209;48.982;8.406;2023-02-10T00:39:00;4.00;96.80
4390;DHT22;2209;48.982;8.406;2023-02-10T00:41:24;3.90;96.80
4390;DHT22;2209;48.982;8.406;2023-02-10T00:43:47;3.90;96.80
4390;DHT22;2209;48.982;8.406;2023-02-10T00:46:09;3.90;96.80
4390;DHT22;2209;48.982;8.406;2023-02-10T00:48:32;3.90;96.90
4390;DHT22;2209;48.982;8.406;2023-02-10T00:50:54;3.90;96.90
4390;DHT22;2209;48.982;8.406;2023-02-10T00:53:16;3.90;96.90
4390;DHT22;2209;48.982;8.406;2023-02-10T00:55:38;3.90;97.10
4390;DHT22;2209;48.982;8.406;2023-02-10T00:58:00;3.90;97.10
4390;DHT22;2209;48.982;8.406;2023-02-10T01:00:24;3.90;97.20
4390;DHT22;2209;48.982;8.406;2023-02-10T01:02:46;3.80;97.20
4390;DHT22;2209;48.982;8.406;2023-02-10T01:05:08;3.80;97.40
4390;DHT22;2209;48.982;8.406;2023-02-10T01:07:30;3.70;97.40
4390;DHT22;2209;48.982;8.406;2023-02-10T01:09:52;3.70;97.50
4390;DHT22;2209;48.982;8.406;2023-02-10T01:12:14;3.70;97.60
4390;DHT22;2209;48.982;8.406;2023-02-10T01:14:36;3.70;97.60
4390;DHT22;2209;48.982;8.406;2023-02-10T01:16:59;3.60;97.60
4390;DHT22;2209;48.982;8.406;2023-02-10T01:19:21;3.60;97.50
4390;DHT22;2209;48.982;8.406;2023-02-10T01:21:44;3.60;97.70
4390;DHT22;2209;48.982;8.406;2023-02-10T01:24:06;3.50;97.70
4390;DHT22;2209;48.982;8.406;2023-02-10T01:26:28;3.50;97.70
4390;DHT22;2209;48.982;8.406;2023-02-10T01:28:50;3.40;97.70
4390;DHT22;2209;48.982;8.406;2023-02-10T01:31:14;3.40;97.80
4390;DHT22;2209;48.982;8.406;2023-02-10T01:33:38;3.30;97.80
4390;DHT22;2209;48.982;8.406;2023-02-10T01:36:03;3.30;98.00
4390;DHT22;2209;48.982;8.406;2023-02-10T01:38:25;3.30;98.30
4390;DHT22;2209;48.982;8.406;2023-02-10T01:40:48;3.30;98.50
4390;DHT22;2209;48.982;8.406;2023-02-10T01:43:13;3.30;98.60
4390;DHT22;2209;48.982;8.406;2023-02-10T01:45:36;3.20;98.60
4390;DHT22;2209;48.982;8.406;2023-02-10T01:47:59;3.20;98.70
4390;DHT22;2209;48.982;8.406;2023-02-10T01:50:27;3.20;98.80
4390;DHT22;2209;48.982;8.406;2023-02-10T01:52:50;3.20;98.90
4390;DHT22;2209;48.982;8.406;2023-02-10T01:55:15;3.20;99.00
4390;DHT22;2209;48.982;8.406;2023-02-10T01:57:40;3.20;99.00
4390;DHT22;2209;48.982;8.406;2023-02-10T02:00:05;3.20;99.00
4390;DHT22;2209;48.982;8.406;2023-02-10T02:02:28;3.20;99.00
4390;DHT22;2209;48.982;8.406;2023-02-10T02:04:52;3.10;98.90
4390;DHT22;2209;48.982;8.406;2023-02-10T02:07:17;3.10;98.90
4390;DHT22;2209;48.982;8.406;2023-02-10T02:09:41;3.10;98.90
4390;DHT22;2209;48.982;8.406;2023-02-10T02:12:12;3.10;98.90
4390;DHT22;2209;48.982;8.406;2023-02-10T02:14:41;3.10;98.90
4390;DHT22;2209;48.982;8.406;2023-02-10T02:17:12;3.10;98.90
4390;DHT22;2209;48.982;8.406;2023-02-10T02:23:08;3.00;99.00
4390;DHT22;2209;48.982;8.406;2023-02-10T02:25:41;3.00;99.10
4390;DHT22;2209;48.982;8.406;2023-02-10T02:28:18;3.00;99.10
4390;DHT22;2209;48.982;8.406;2023-02-10T02:33:40;3.10;99.20
4390;DHT22;2209;48.982;8.406;2023-02-10T02:36:07;3.10;99.20
4390;DHT22;2209;48.982;8.406;2023-02-10T02:38:36;3.10;99.00
4390;DHT22;2209;48.982;8.406;2023-02-10T02:40:58;3.10;99.00
4390;DHT22;2209;48.982;8.406;2023-02-10T02:43:20;3.10;99.00
4390;DHT22;2209;48.982;8.406;2023-02-10T02:45:50;3.10;99.00
4390;DHT22;2209;48.982;8.406;2023-02-10T02:48:28;3.10;99.00
4390;DHT22;2209;48.982;8.406;2023-02-10T02:51:00;3.10;99.00
4390;DHT22;2209;48.982;8.406;2023-02-10T02:53:29;3.10;99.00
4390;DHT22;2209;48.982;8.406;2023-02-10T02:56:01;3.10;99.10
4390;DHT22;2209;48.982;8.406;2023-02-10T02:58:30;3.10;99.20
4390;DHT22;2209;48.982;8.406;2023-02-10T03:00:54;3.10;99.20
4390;DHT22;2209;48.982;8.406;2023-02-10T03:03:21;3.10;99.30
4390;DHT22;2209;48.982;8.406;2023-02-10T03:05:43;3.10;99.30
4390;DHT22;2209;48.982;8.406;2023-02-10T03:08:06;3.00;99.30
4390;DHT22;2209;48.982;8.406;2023-02-10T03:10:28;3.00;99.40
4390;DHT22;2209;48.982;8.406;2023-02-10T03:12:50;3.00;99.40
4390;DHT22;2209;48.982;8.406;2023-02-10T03:15:13;3.00;99.40
4390;DHT22;2209;48.982;8.406;2023-02-10T03:17:35;3.00;99.50
4390;DHT22;2209;48.982;8.406;2023-02-10T03:19:57;3.00;99.50
4390;DHT22;2209;48.982;8.406;2023-02-10T03:22:19;3.00;99.50
4390;DHT22;2209;48.982;8.406;2023-02-10T03:24:42;3.00;99.60
4390;DHT22;2209;48.982;8.406;2023-02-10T03:27:04;3.00;99.60
4390;DHT22;2209;48.982;8.406;2023-02-10T03:29:26;2.90;99.60
4390;DHT22;2209;48.982;8.406;2023-02-10T03:31:48;2.90;99.70
4390;DHT22;2209;48.982;8.406;2023-02-10T03:34:11;2.90;99.90
4390;DHT22;2209;48.982;8.406;2023-02-10T03:36:33;2.80;99.90
4390;DHT22;2209;48.982;8.406;2023-02-10T03:38:55;2.80;99.90
4390;DHT22;2209;48.982;8.406;2023-02-10T03:41:19;2.80;99.90
4390;DHT22;2209;48.982;8.406;2023-02-10T03:43:41;2.80;99.90
4390;DHT22;2209;48.982;8.406;2023-02-10T03:46:04;2.70;99.90
4390;DHT22;2209;48.982;8.406;2023-02-10T03:48:26;2.70;99.90
4390;DHT22;2209;48.982;8.406;2023-02-10T03:50:52;2.70;99.90
4390;DHT22;2209;48.982;8.406;2023-02-10T03:53:14;2.70;99.90
4390;DHT22;2209;48.982;8.406;2023-02-10T03:55:36;2.70;99.90
4390;DHT22;2209;48.982;8.406;2023-02-10T03:58:01;2.70;99.90
4390;DHT22;2209;48.982;8.406;2023-02-10T04:00:23;2.70;99.90
4390;DHT22;2209;48.982;8.406;2023-02-10T04:02:45;2.70;99.90
4390;DHT22;2209;48.982;8.406;2023-02-10T04:05:07;2.70;99.90
4390;DHT22;2209;48.982;8.406;2023-02-10T04:07:30;2.70;99.90
4390;DHT22;2209;48.982;8.406;2023-02-10T04:09:52;2.70;99.90
4390;DHT22;2209;48.982;8.406;2023-02-10T04:12:14;2.70;99.90
4390;DHT22;2209;48.982;8.406;2023-02-10T04:14:37;2.70;99.90
4390;DHT22;2209;48.982;8.406;2023-02-10T04:16:59;2.70;99.90
4390;DHT22;2209;48.982;8.406;2023-02-10T04:19:21;2.70;99.90
4390;DHT22;2209;48.982;8.406;2023-02-10T04:21:44;2.70;99.90
4390;DHT22;2209;48.982;8.406;2023-02-10T04:24:06;2.70;99.90
4390;DHT22;2209;48.982;8.406;2023-02-10T04:26:28;2.70;99.90
4390;DHT22;2209;48.982;8.406;2023-02-10T04:28:50;2.70;99.90
4390;DHT22;2209;48.982;8.406;2023-02-10T04:31:13;2.70;99.90
4390;DHT22;2209;48.982;8.406;2023-02-10T04:33:36;2.70;99.90
4390;DHT22;2209;48.982;8.406;2023-02-10T04:35:58;2.70;99.90
4390;DHT22;2209;48.982;8.406;2023-02-10T04:38:23;2.70;99.90
4390;DHT22;2209;48.982;8.406;2023-02-10T04:40:45;2.70;99.90
4390;DHT22;2209;48.982;8.406;2023-02-10T04:43:08;2.70;99.90
4390;DHT22;2209;48.982;8.406;2023-02-10T04:45:30;2.70;99.90
4390;DHT22;2209;48.982;8.406;2023-02-10T04:47:53;2.70;99.90
4390;DHT22;2209;48.982;8.406;2023-02-10T04:50:15;2.70;99.90
4390;DHT22;2209;48.982;8.406;2023-02-10T04:52:37;2.70;99.90
4390;DHT22;2209;48.982;8.406;2023-02-10T04:54:59;2.70;99.90
4390;DHT22;2209;48.982;8.406;2023-02-10T04:57:21;2.70;99.90
4390;DHT22;2209;48.982;8.406;2023-02-10T04:59:44;2.70;99.90
4390;DHT22;2209;48.982;8.406;2023-02-10T05:02:06;2.70;99.90
4390;DHT22;2209;48.982;8.406;2023-02-10T05:04:29;2.70;99.90
4390;DHT22;2209;48.982;8.406;2023-02-10T05:06:51;2.70;99.90
4390;DHT22;2209;48.982;8.406;2023-02-10T05:09:14;2.70;99.90
4390;DHT22;2209;48.982;8.406;2023-02-10T05:11:36;2.70;99.90
4390;DHT22;2209;48.982;8.406;2023-02-10T05:13:58;2.70;99.90
4390;DHT22;2209;48.982;8.406;2023-02-10T05:16:20;2.70;99.90
4390;DHT22;2209;48.982;8.406;2023-02-10T05:18:43;2.70;99.90
4390;DHT22;2209;48.982;8.406;2023-02-10T05:21:07;2.70;99.90
4390;DHT22;2209;48.982;8.406;2023-02-10T05:23:29;2.70;99.90
4390;DHT22;2209;48.982;8.406;2023-02-10T05:25:52;2.70;99.90
4390;DHT22;2209;48.982;8.406;2023-02-10T05:28:14;2.60;99.90
4390;DHT22;2209;48.982;8.406;2023-02-10T05:30:36;2.60;99.90
4390;DHT22;2209;48.982;8.406;2023-02-10T05:32:58;2.60;99.90
4390;DHT22;2209;48.982;8.406;2023-02-10T05:35:20;2.50;99.90
4390;DHT22;2209;48.982;8.406;2023-02-10T05:37:43;2.50;99.90
4390;DHT22;2209;48.982;8.406;2023-02-10T05:40:06;2.50;99.90
4390;DHT22;2209;48.982;8.406;2023-02-10T05:42:28;2.40;99.90
4390;DHT22;2209;48.982;8.406;2023-02-10T05:44:50;2.40;99.90
4390;DHT22;2209;48.982;8.406;2023-02-10T05:47:12;2.30;99.90
4390;DHT22;2209;48.982;8.406;2023-02-10T05:49:34;2.30;99.90
4390;DHT22;2209;48.982;8.406;2023-02-10T05:51:56;2.30;99.90
4390;DHT22;2209;48.982;8.406;2023-02-10T05:54:20;2.30;99.90
4390;DHT22;2209;48.982;8.406;2023-02-10T05:56:42;2.20;99.90
4390;DHT22;2209;48.982;8.406;2023-02-10T05:59:04;2.20;99.90
4390;DHT22;2209;48.982;8.406;2023-02-10T06:01:26;2.20;99.90
4390;DHT22;2209;48.982;8.406;2023-02-10T06:03:48;2.20;99.90
4390;DHT22;2209;48.982;8.406;2023-02-10T06:06:11;2.10;99.90
4390;DHT22;2209;48.982;8.406;2023-02-10T06:08:33;2.10;99.90
4390;DHT22;2209;48.982;8.406;2023-02-10T06:10:56;2.10;99.90
4390;DHT22;2209;48.982;8.406;2023-02-10T06:13:18;2.10;99.90
4390;DHT22;2209;48.982;8.406;2023-02-10T06:15:41;2.10;99.90
4390;DHT22;2209;48.982;8.406;2023-02-10T06:18:03;2.10;99.90
4390;DHT22;2209;48.982;8.406;2023-02-10T06:20:25;2.10;99.90
4390;DHT22;2209;48.982;8.406;2023-02-10T06:22:48;2.10;99.90
4390;DHT22;2209;48.982;8.406;2023-02-10T06:25:10;2.10;99.90
4390;DHT22;2209;48.982;8.406;2023-02-10T06:27:33;2.10;99.90
4390;DHT22;2209;48.982;8.406;2023-02-10T06:29:55;2.10;99.90
4390;DHT22;2209;48.982;8.406;2023-02-10T06:32:18;2.10;99.90
4390;DHT22;2209;48.982;8.406;2023-02-10T06:34:40;2.00;99.90
4390;DHT22;2209;48.982;8.406;2023-02-10T06:37:02;2.00;99.90
4390;DHT22;2209;48.982;8.406;2023-02-10T06:39:24;2.00;99.90
4390;DHT22;2209;48.982;8.406;2023-02-10T06:41:46;2.00;99.90
4390;DHT22;2209;48.982;8.406;2023-02-10T06:44:09;2.00;99.90
4390;DHT22;2209;48.982;8.406;2023-02-10T06:46:32;2.00;99.90
4390;DHT22;2209;48.982;8.406;2023-02-10T06:48:57;2.00;99.90
4390;DHT22;2209;48.982;8.406;2023-02-10T06:51:22;2.00;99.90
4390;DHT22;2209;48.982;8.406;2023-02-10T06:53:50;2.00;99.90
4390;DHT22;2209;48.982;8.406;2023-02-10T06:56:12;2.00;99.90
4390;DHT22;2209;48.982;8.406;2023-02-10T06:58:35;2.10;99.90
4390;DHT22;2209;48.982;8.406;2023-02-10T07:00:58;2.00;99.90
4390;DHT22;2209;48.982;8.406;2023-02-10T07:03:21;2.10;99.90
4390;DHT22;2209;48.982;8.406;2023-02-10T07:05:43;2.10;99.90
4390;DHT22;2209;48.982;8.406;2023-02-10T07:08:05;2.10;99.90
4390;DHT22;2209;48.982;8.406;2023-02-10T07:10:28;2.10;99.90
4390;DHT22;2209;48.982;8.406;2023-02-10T07:12:50;2.10;99.90
4390;DHT22;2209;48.982;8.406;2023-02-10T07:15:12;2.10;99.90
4390;DHT22;2209;48.982;8.406;2023-02-10T07:17:36;2.10;99.90
4390;DHT22;2209;48.982;8.406;2023-02-10T07:19:58;2.10;99.90
4390;DHT22;2209;48.982;8.406;2023-02-10T07:22:20;2.10;99.90
4390;DHT22;2209;48.982;8.406;2023-02-10T07:24:42;2.10;99.90
4390;DHT22;2209;48.982;8.406;2023-02-10T07:27:05;2.10;99.90
4390;DHT22;2209;48.982;8.406;2023-02-10T07:29:27;2.10;99.90
4390;DHT22;2209;48.982;8.406;2023-02-10T07:31:49;2.00;99.90
4390;DHT22;2209;48.982;8.406;2023-02-10T07:34:12;2.00;99.90
4390;DHT22;2209;48.982;8.406;2023-02-10T07:36:34;2.00;99.90
4390;DHT22;2209;48.982;8.406;2023-02-10T07:38:56;2.00;99.90
4390;DHT22;2209;48.982;8.406;2023-02-10T07:41:18;2.00;99.90
4390;DHT22;2209;48.982;8.406;2023-02-10T07:43:41;2.00;99.90
4390;DHT22;2209;48.982;8.406;2023-02-10T07:46:04;2.00;99.90
4390;DHT22;2209;48.982;8.406;2023-02-10T07:48:26;2.00;99.90
4390;DHT22;2209;48.982;8.406;2023-02-10T07:50:50;2.00;99.90
4390;DHT22;2209;48.982;8.406;2023-02-10T07:53:13;2.00;99.90
4390;DHT22;2209;48.982;8.406;2023-02-10T07:55:36;2.00;99.90
4390;DHT22;2209;48.982;8.406;2023-02-10T07:57:58;2.00;99.90
4390;DHT22;2209;48.982;8.406;2023-02-10T08:00:21;1.90;99.90
4390;DHT22;2209;48.982;8.406;2023-02-10T08:02:43;1.90;99.90
4390;DHT22;2209;48.982;8.406;2023-02-10T08:05:05;1.90;99.90
4390;DHT22;2209;48.982;8.406;2023-02-10T08:07:29;1.90;99.90
4390;DHT22;2209;48.982;8.406;2023-02-10T08:09:51;1.90;99.90
4390;DHT22;2209;48.982;8.406;2023-02-10T08:12:13;1.80;99.90
4390;DHT22;2209;48.982;8.406;2023-02-10T08:14:35;1.80;99.90
4390;DHT22;2209;48.982;8.406;2023-02-10T08:16:57;1.80;99.90
4390;DHT22;2209;48.982;8.406;2023-02-10T08:19:20;1.80;99.90
4390;DHT22;2209;48.982;8.406;2023-02-10T08:21:42;1.80;99.90
4390;DHT22;2209;48.982;8.406;2023-02-10T08:24:05;1.80;99.90
4390;DHT22;2209;48.982;8.406;2023-02-10T08:26:27;1.80;99.90
4390;DHT22;2209;48.982;8.406;2023-02-10T08:28:50;1.80;99.90
4390;DHT22;2209;48.982;8.406;2023-02-10T08:31:12;1.80;99.90
4390;DHT22;2209;48.982;8.406;2023-02-10T08:33:35;1.80;99.90
4390;DHT22;2209;48.982;8.406;2023-02-10T08:35:57;1.80;99.90
4390;DHT22;2209;48.982;8.406;2023-02-10T08:38:19;1.70;99.90
4390;DHT22;2209;48.982;8.406;2023-02-10T08:40:42;1.80;99.90
4390;DHT22;2209;48.982;8.406;2023-02-10T08:43:05;1.80;99.90
4390;DHT22;2209;48.982;8.406;2023-02-10T08:45:27;1.80;99.90
4390;DHT22;2209;48.982;8.406;2023-02-10T08:47:49;1.80;99.90
4390;DHT22;2209;48.982;8.406;2023-02-10T08:50:11;1.80;99.90
4390;DHT22;2209;48.982;8.406;2023-02-10T08:52:34;1.80;99.90
4390;DHT22;2209;48.982;8.406;2023-02-10T08:54:56;1.80;99.90
4390;DHT22;2209;48.982;8.406;2023-02-10T08:57:21;1.80;99.90
4390;DHT22;2209;48.982;8.406;2023-02-10T08:59:44;1.80;99.90
4390;DHT22;2209;48.982;8.406;2023-02-10T09:02:06;1.80;99.90
4390;DHT22;2209;48.982;8.406;2023-02-10T09:04:28;1.80;99.90
4390;DHT22;2209;48.982;8.406;2023-02-10T09:06:50;1.80;99.90
4390;DHT22;2209;48.982;8.406;2023-02-10T09:09:15;1.80;99.90
4390;DHT22;2209;48.982;8.406;2023-02-10T09:11:37;1.80;99.90
4390;DHT22;2209;48.982;8.406;2023-02-10T09:14:01;1.80;99.90
4390;DHT22;2209;48.982;8.406;2023-02-10T09:16:24;1.90;99.90
4390;DHT22;2209;48.982;8.406;2023-02-10T09:18:46;1.90;99.90
4390;DHT22;2209;48.982;8.406;2023-02-10T09:21:08;1.90;99.90
4390;DHT22;2209;48.982;8.406;2023-02-10T09:23:30;1.90;99.90
4390;DHT22;2209;48.982;8.406;2023-02-10T09:25:54;1.90;99.90
4390;DHT22;2209;48.982;8.406;2023-02-10T09:28:16;1.90;99.90
4390;DHT22;2209;48.982;8.406;2023-02-10T09:30:39;1.90;99.90
4390;DHT22;2209;48.982;8.406;2023-02-10T09:33:01;2.00;99.90
4390;DHT22;2209;48.982;8.406;2023-02-10T09:35:25;2.00;99.90
4390;DHT22;2209;48.982;8.406;2023-02-10T09:37:47;2.00;99.90
4390;DHT22;2209;48.982;8.406;2023-02-10T09:40:14;2.00;99.90
4390;DHT22;2209;48.982;8.406;2023-02-10T09:42:50;2.10;99.90
4390;DHT22;2209;48.982;8.406;2023-02-10T09:45:20;2.10;99.90
4390;DHT22;2209;48.982;8.406;2023-02-10T09:47:48;2.10;99.90
4390;DHT22;2209;48.982;8.406;2023-02-10T09:50:30;2.10;99.90
4390;DHT22;2209;48.982;8.406;2023-02-10T09:53:03;2.10;99.90
4390;DHT22;2209;48.982;8.406;2023-02-10T09:55:31;2.10;99.90
4390;DHT22;2209;48.982;8.406;2023-02-10T09:57:57;2.20;99.90
4390;DHT22;2209;48.982;8.406;2023-02-10T10:00:26;2.20;99.90
4390;DHT22;2209;48.982;8.406;2023-02-10T10:02:53;2.20;99.90
4390;DHT22;2209;48.982;8.406;2023-02-10T10:05:21;2.20;99.90
4390;DHT22;2209;48.982;8.406;2023-02-10T10:07:49;2.30;99.90
4390;DHT22;2209;48.982;8.406;2023-02-10T10:10:14;2.30;99.90
4390;DHT22;2209;48.982;8.406;2023-02-10T10:12:39;2.30;99.90
4390;DHT22;2209;48.982;8.406;2023-02-10T10:15:01;2.30;99.90
4390;DHT22;2209;48.982;8.406;2023-02-10T10:17:47;2.30;99.90
4390;DHT22;2209;48.982;8.406;2023-02-10T10:20:39;2.30;99.90
4390;DHT22;2209;48.982;8.406;2023-02-10T10:23:17;2.30;99.90
4390;DHT22;2209;48.982;8.406;2023-02-10T10:25:55;2.30;99.90
4390;DHT22;2209;48.982;8.406;2023-02-10T10:28:28;2.30;99.90
4390;DHT22;2209;48.982;8.406;2023-02-10T10:30:56;2.40;99.90
4390;DHT22;2209;48.982;8.406;2023-02-10T10:33:22;2.40;99.90
4390;DHT22;2209;48.982;8.406;2023-02-10T10:35:46;2.40;99.90
4390;DHT22;2209;48.982;8.406;2023-02-10T10:38:12;2.40;99.90
4390;DHT22;2209;48.982;8.406;2023-02-10T10:40:35;2.40;99.90
4390;DHT22;2209;48.982;8.406;2023-02-10T10:43:00;2.40;99.90
4390;DHT22;2209;48.982;8.406;2023-02-10T10:45:24;2.50;99.90
4390;DHT22;2209;48.982;8.406;2023-02-10T10:47:52;2.50;99.90
4390;DHT22;2209;48.982;8.406;2023-02-10T10:50:19;2.50;99.90
4390;DHT22;2209;48.982;8.406;2023-02-10T10:53:05;2.50;99.90
4390;DHT22;2209;48.982;8.406;2023-02-10T10:55:37;2.60;99.90
4390;DHT22;2209;48.982;8.406;2023-02-10T10:58:01;2.60;99.90
4390;DHT22;2209;48.982;8.406;2023-02-10T11:00:26;2.60;99.90
4390;DHT22;2209;48.982;8.406;2023-02-10T11:02:54;2.60;99.90
4390;DHT22;2209;48.982;8.406;2023-02-10T11:05:17;2.60;99.90
4390;DHT22;2209;48.982;8.406;2023-02-10T11:07:41;2.70;99.90
4390;DHT22;2209;48.982;8.406;2023-02-10T11:10:06;2.70;99.90
4390;DHT22;2209;48.982;8.406;2023-02-10T11:12:32;2.70;99.90
4390;DHT22;2209;48.982;8.406;2023-02-10T11:14:54;2.70;99.90
4390;DHT22;2209;48.982;8.406;2023-02-10T11:17:20;2.80;99.90
4390;DHT22;2209;48.982;8.406;2023-02-10T11:19:53;2.80;99.90
4390;DHT22;2209;48.982;8.406;2023-02-10T11:22:19;2.80;99.90
4390;DHT22;2209;48.982;8.406;2023-02-10T11:24:49;2.80;99.90
4390;DHT22;2209;48.982;8.406;2023-02-10T11:27:14;2.80;99.90
4390;DHT22;2209;48.982;8.406;2023-02-10T11:29:46;2.90;99.90
4390;DHT22;2209;48.982;8.406;2023-02-10T11:32:18;2.90;99.90
4390;DHT22;2209;48.982;8.406;2023-02-10T11:34:44;2.90;99.90
4390;DHT22;2209;48.982;8.406;2023-02-10T11:37:11;3.00;99.90
4390;DHT22;2209;48.982;8.406;2023-02-10T11:39:37;3.00;99.90
4390;DHT22;2209;48.982;8.406;2023-02-10T11:42:08;3.10;99.90
4390;DHT22;2209;48.982;8.406;2023-02-10T11:44:32;3.00;99.90
4390;DHT22;2209;48.982;8.406;2023-02-10T11:46:56;3.10;99.90
4390;DHT22;2209;48.982;8.406;2023-02-10T11:49:18;3.10;99.90
4390;DHT22;2209;48.982;8.406;2023-02-10T11:51:50;3.10;99.90
4390;DHT22;2209;48.982;8.406;2023-02-10T11:54:18;3.10;99.90
4390;DHT22;2209;48.982;8.406;2023-02-10T11:56:47;3.10;99.90
4390;DHT22;2209;48.982;8.406;2023-02-10T11:59:38;3.10;99.90
4390;DHT22;2209;48.982;8.406;2023-02-10T12:02:10;3.10;99.90
4390;DHT22;2209;48.982;8.406;2023-02-10T12:04:54;3.10;99.90
4390;DHT22;2209;48.982;8.406;2023-02-10T12:07:25;3.10;99.90
4390;DHT22;2209;48.982;8.406;2023-02-10T12:09:52;3.10;99.90
4390;DHT22;2209;48.982;8.406;2023-02-10T12:12:22;3.20;99.90
4390;DHT22;2209;48.982;8.406;2023-02-10T12:14:56;3.20;99.90
4390;DHT22;2209;48.982;8.406;2023-02-10T12:17:26;3.20;99.90
4390;DHT22;2209;48.982;8.406;2023-02-10T12:20:00;3.20;99.90
4390;DHT22;2209;48.982;8.406;2023-02-10T12:22:28;3.30;99.90
4390;DHT22;2209;48.982;8.406;2023-02-10T12:25:06;3.30;99.90
4390;DHT22;2209;48.982;8.406;2023-02-10T12:27:42;3.30;99.90
4390;DHT22;2209;48.982;8.406;2023-02-10T12:30:17;3.40;99.90
4390;DHT22;2209;48.982;8.406;2023-02-10T12:32:49;3.40;99.90
4390;DHT22;2209;48.982;8.406;2023-02-10T12:35:22;3.40;99.90
4390;DHT22;2209;48.982;8.406;2023-02-10T12:37:56;3.40;99.90
4390;DHT22;2209;48.982;8.406;2023-02-10T12:40:41;3.40;99.90
4390;DHT22;2209;48.982;8.406;2023-02-10T12:43:15;3.50;99.90
4390;DHT22;2209;48.982;8.406;2023-02-10T12:45:46;3.50;99.90
4390;DHT22;2209;48.982;8.406;2023-02-10T12:48:21;3.60;99.90
4390;DHT22;2209;48.982;8.406;2023-02-10T12:51:03;3.60;99.90
4390;DHT22;2209;48.982;8.406;2023-02-10T12:53:34;3.60;99.90
4390;DHT22;2209;48.982;8.406;2023-02-10T12:56:00;3.70;99.90
4390;DHT22;2209;48.982;8.406;2023-02-10T12:58:26;3.70;99.90
4390;DHT22;2209;48.982;8.406;2023-02-10T13:00:56;3.70;99.90
4390;DHT22;2209;48.982;8.406;2023-02-10T13:03:24;3.70;99.90
4390;DHT22;2209;48.982;8.406;2023-02-10T13:05:51;3.80;99.90
4390;DHT22;2209;48.982;8.406;2023-02-10T13:08:19;3.80;99.90
4390;DHT22;2209;48.982;8.406;2023-02-10T13:10:47;3.90;99.90
4390;DHT22;2209;48.982;8.406;2023-02-10T13:13:14;3.90;99.90
4390;DHT22;2209;48.982;8.406;2023-02-10T13:15:40;4.00;99.90
4390;DHT22;2209;48.982;8.406;2023-02-10T13:18:16;4.00;99.90
4390;DHT22;2209;48.982;8.406;2023-02-10T13:20:45;4.10;99.90
4390;DHT22;2209;48.982;8.406;2023-02-10T13:23:21;4.20;99.90
4390;DHT22;2209;48.982;8.406;2023-02-10T13:26:02;4.20;99.90
4390;DHT22;2209;48.982;8.406;2023-02-10T13:28:45;4.30;99.90
4390;DHT22;2209;48.982;8.406;2023-02-10T13:31:19;4.30;99.90
4390;DHT22;2209;48.982;8.406;2023-02-10T13:33:51;4.40;99.90
4390;DHT22;2209;48.982;8.406;2023-02-10T13:36:18;4.50;99.90
4390;DHT22;2209;48.982;8.406;2023-02-10T13:38:47;4.50;99.90
4390;DHT22;2209;48.982;8.406;2023-02-10T13:41:24;4.60;99.90
4390;DHT22;2209;48.982;8.406;2023-02-10T13:44:18;4.60;99.90
4390;DHT22;2209;48.982;8.406;2023-02-10T13:46:40;4.70;99.90
4390;DHT22;2209;48.982;8.406;2023-02-10T13:49:04;4.70;99.90
4390;DHT22;2209;48.982;8.406;2023-02-10T13:51:30;4.80;99.90
4390;DHT22;2209;48.982;8.406;2023-02-10T13:53:53;4.90;99.90
4390;DHT22;2209;48.982;8.406;2023-02-10T13:56:25;5.00;99.90
4390;DHT22;2209;48.982;8.406;2023-02-10T13:58:50;5.10;99.90
4390;DHT22;2209;48.982;8.406;2023-02-10T14:04:28;5.20;99.90
4390;DHT22;2209;48.982;8.406;2023-02-10T14:06:52;5.30;99.90
4390;DHT22;2209;48.982;8.406;2023-02-10T14:09:19;5.40;99.90
4390;DHT22;2209;48.982;8.406;2023-02-10T14:11:43;5.40;99.90
4390;DHT22;2209;48.982;8.406;2023-02-10T14:14:24;5.50;99.90
4390;DHT22;2209;48.982;8.406;2023-02-10T14:16:49;5.60;99.90
4390;DHT22;2209;48.982;8.406;2023-02-10T14:19:22;5.60;99.90
4390;DHT22;2209;48.982;8.406;2023-02-10T14:21:48;5.70;99.90
4390;DHT22;2209;48.982;8.406;2023-02-10T14:24:14;5.70;99.90
4390;DHT22;2209;48.982;8.406;2023-02-10T14:26:36;5.80;99.90
4390;DHT22;2209;48.982;8.406;2023-02-10T14:28:59;5.80;99.90
4390;DHT22;2209;48.982;8.406;2023-02-10T14:31:26;5.90;99.90
4390;DHT22;2209;48.982;8.406;2023-02-10T14:33:54;6.00;99.90
4390;DHT22;2209;48.982;8.406;2023-02-10T14:36:18;6.00;99.90
4390;DHT22;2209;48.982;8.406;2023-02-10T14:38:43;6.10;99.90
4390;DHT22;2209;48.982;8.406;2023-02-10T14:41:07;6.10;99.90
4390;DHT22;2209;48.982;8.406;2023-02-10T14:43:31;6.20;99.90
4390;DHT22;2209;48.982;8.406;2023-02-10T14:45:57;6.30;99.90
4390;DHT22;2209;48.982;8.406;2023-02-10T14:48:23;6.40;99.90
4390;DHT22;2209;48.982;8.406;2023-02-10T14:50:56;6.40;99.90
4390;DHT22;2209;48.982;8.406;2023-02-10T14:53:18;6.50;99.90
4390;DHT22;2209;48.982;8.406;2023-02-10T14:55:42;6.60;99.80
4390;DHT22;2209;48.982;8.406;2023-02-10T14:58:10;6.60;99.60
4390;DHT22;2209;48.982;8.406;2023-02-10T15:00:33;6.70;99.70
4390;DHT22;2209;48.982;8.406;2023-02-10T15:02:58;6.70;99.50
4390;DHT22;2209;48.982;8.406;2023-02-10T15:05:21;6.80;99.30
4390;DHT22;2209;48.982;8.406;2023-02-10T15:07:47;6.80;99.00
4390;DHT22;2209;48.982;8.406;2023-02-10T15:10:17;6.80;98.90
4390;DHT22;2209;48.982;8.406;2023-02-10T15:12:42;6.80;98.70
4390;DHT22;2209;48.982;8.406;2023-02-10T15:15:22;6.90;98.60
4390;DHT22;2209;48.982;8.406;2023-02-10T15:17:49;6.90;98.40
4390;DHT22;2209;48.982;8.406;2023-02-10T15:20:22;6.90;98.30
4390;DHT22;2209;48.982;8.406;2023-02-10T15:22:48;7.00;98.20
4390;DHT22;2209;48.982;8.406;2023-02-10T15:25:38;7.00;98.10
4390;DHT22;2209;48.982;8.406;2023-02-10T15:28:18;7.00;97.90
4390;DHT22;2209;48.982;8.406;2023-02-10T15:30:53;7.00;97.80
4390;DHT22;2209;48.982;8.406;2023-02-10T15:33:18;7.00;97.70
4390;DHT22;2209;48.982;8.406;2023-02-10T15:35:41;7.00;98.00
4390;DHT22;2209;48.982;8.406;2023-02-10T15:38:03;6.90;98.00
4390;DHT22;2209;48.982;8.406;2023-02-10T15:40:28;7.00;97.80
4390;DHT22;2209;48.982;8.406;2023-02-10T15:42:58;7.00;97.70
4390;DHT22;2209;48.982;8.406;2023-02-10T15:45:25;7.00;97.50
4390;DHT22;2209;48.982;8.406;2023-02-10T15:47:52;7.00;97.30
4390;DHT22;2209;48.982;8.406;2023-02-10T15:50:15;7.00;97.20
4390;DHT22;2209;48.982;8.406;2023-02-10T15:52:40;7.00;97.10
4390;DHT22;2209;48.982;8.406;2023-02-10T15:55:09;7.00;97.10
4390;DHT22;2209;48.982;8.406;2023-02-10T15:57:31;7.10;97.10
4390;DHT22;2209;48.982;8.406;2023-02-10T15:59:53;7.00;97.00
4390;DHT22;2209;48.982;8.406;2023-02-10T16:02:17;7.00;97.10
4390;DHT22;2209;48.982;8.406;2023-02-10T16:04:40;7.10;97.00
4390;DHT22;2209;48.982;8.406;2023-02-10T16:07:04;7.10;97.00
4390;DHT22;2209;48.982;8.406;2023-02-10T16:09:27;7.10;96.90
4390;DHT22;2209;48.982;8.406;2023-02-10T16:11:50;7.10;96.80
4390;DHT22;2209;48.982;8.406;2023-02-10T16:14:12;7.10;96.80